Time;durP1;ratioP1;P1;durP2;ratioP2;P2;SDS_P1;SDS_P2;PMS_P1;PMS_P2;Temp;Humidity;BMP_temperature;BMP_pressure;BME280_temperature;BME280_humidity;BME280_pressure;Samples;Min_cycle;Max_cycle;Signal;HPM_P1;HPM_P2
2022/06/16 00:01:02;;;;;;;5.72;3.45;;;13.10;99.90;;;;;;6276278;22;20103;-82
2022/06/16 00:03:28;;;;;;;6.80;4.05;;;13.10;99.90;;;;;;6276350;22;20047;-82
2022/06/16 00:05:54;;;;;;;8.73;4.00;;;13.10;99.90;;;;;;6276353;22;20327;-81
2022/06/16 00:08:20;;;;;;;5.32;3.95;;;13.10;99.90;;;;;;6276143;22;20355;-81
2022/06/16 00:13:34;;;;;;;9.23;4.07;;;13.20;99.90;;;;;;6249181;22;20027;-82
2022/06/16 00:16:00;;;;;;;7.13;4.10;;;13.20;99.90;;;;;;6276302;22;20363;-81
2022/06/16 00:18:27;;;;;;;11.10;4.05;;;13.20;99.90;;;;;;6276200;22;20051;-81
2022/06/16 00:20:53;;;;;;;6.35;4.35;;;13.20;99.90;;;;;;6275738;22;20039;-83
2022/06/16 00:23:19;;;;;;;10.80;3.72;;;13.20;99.90;;;;;;6249239;22;20026;-82
2022/06/16 00:25:45;;;;;;;9.98;3.95;;;13.10;99.90;;;;;;6275797;22;20443;-82
2022/06/16 00:28:10;;;;;;;7.95;3.58;;;13.10;99.90;;;;;;6248951;22;20030;-82
2022/06/16 00:30:36;;;;;;;10.13;3.50;;;13.20;99.90;;;;;;6223905;22;20019;-82
2022/06/16 00:33:02;;;;;;;7.88;2.92;;;13.10;99.90;;;;;;6275814;22;20030;-82
2022/06/16 00:35:27;;;;;;;7.43;3.45;;;13.10;99.90;;;;;;6249035;22;20053;-82
2022/06/16 00:37:53;;;;;;;6.80;3.30;;;13.20;99.90;;;;;;6249014;22;20477;-82
2022/06/16 00:40:19;;;;;;;7.90;3.58;;;13.20;99.90;;;;;;6222754;22;20470;-82
2022/06/16 00:42:45;;;;;;;8.60;3.75;;;13.10;99.90;;;;;;6249162;22;20011;-82
2022/06/16 00:45:43;;;;;;;7.45;3.35;;;13.20;99.90;;;;;;6249284;22;20020;-81
2022/06/16 00:48:18;;;;;;;9.35;3.88;;;13.20;99.90;;;;;;6276033;22;20012;-82
2022/06/16 00:50:46;;;;;;;8.30;4.28;;;13.20;99.90;;;;;;6276109;22;20024;-82
2022/06/16 00:53:11;;;;;;;8.55;3.97;;;13.10;99.90;;;;;;6249391;22;20019;-82
2022/06/16 00:55:37;;;;;;;8.68;3.78;;;13.00;99.90;;;;;;6248867;22;20046;-81
2022/06/16 00:58:03;;;;;;;8.27;4.00;;;13.10;99.90;;;;;;6275759;22;20027;-81
2022/06/16 01:02:58;;;;;;;8.00;3.80;;;12.80;99.90;;;;;;6275926;22;20077;-82
2022/06/16 01:05:23;;;;;;;8.48;3.95;;;12.90;99.90;;;;;;6275976;22;20016;-81
2022/06/16 01:07:50;;;;;;;7.70;3.88;;;12.90;99.90;;;;;;6276023;22;20023;-81
2022/06/16 01:10:17;;;;;;;6.80;3.95;;;12.90;99.90;;;;;;6277243;22;20020;-82
2022/06/16 01:16:25;;;;;;;8.45;3.78;;;12.90;99.90;;;;;;6189094;23;20107;-82
2022/06/16 01:19:23;;;;;;;8.50;3.92;;;12.90;99.90;;;;;;6214257;23;20016;-81
2022/06/16 01:22:11;;;;;;;6.60;3.58;;;12.90;99.90;;;;;;6212164;23;20017;-84
2022/06/16 01:25:01;;;;;;;7.78;3.55;;;12.80;99.90;;;;;;6214233;23;20020;-82
2022/06/16 01:27:54;;;;;;;8.35;4.35;;;12.70;99.90;;;;;;6213849;23;20056;-82
2022/06/16 01:30:54;;;;;;;8.40;4.28;;;12.60;99.90;;;;;;6188385;23;20032;-81
2022/06/16 01:33:30;;;;;;;8.95;4.75;;;12.50;99.90;;;;;;6158980;23;20021;-82
2022/06/16 01:36:21;;;;;;;10.90;4.80;;;12.40;99.90;;;;;;6184060;23;20017;-82
2022/06/16 01:38:54;;;;;;;;;;;12.30;99.90;;;;;;6159137;23;20483;-81
2022/06/16 01:41:28;;;;;;;8.13;4.53;;;12.20;99.90;;;;;;6158960;23;19999;-82
2022/06/16 01:44:03;;;;;;;10.52;5.20;;;12.10;99.90;;;;;;6183946;23;20396;-81
2022/06/16 01:46:32;;;;;;;9.52;4.72;;;12.10;99.90;;;;;;6183789;23;20186;-81
2022/06/16 01:49:06;;;;;;;8.35;4.40;;;12.10;99.90;;;;;;6158804;23;20025;-81
2022/06/16 01:51:39;;;;;;;8.80;4.28;;;12.10;99.90;;;;;;6210241;23;20379;-82
2022/06/16 01:54:33;;;;;;;7.97;4.38;;;12.10;99.90;;;;;;6218432;23;20020;-81
2022/06/16 01:57:08;;;;;;;10.00;4.55;;;12.10;99.90;;;;;;6099704;23;20014;-81
2022/06/16 01:59:38;;;;;;;11.48;4.72;;;12.10;99.90;;;;;;6124179;23;20026;-82
2022/06/16 02:02:25;;;;;;;7.68;3.85;;;12.10;99.90;;;;;;6124466;23;20017;-82
2022/06/16 02:05:07;;;;;;;8.63;4.38;;;12.10;99.90;;;;;;6100078;23;20100;-82
2022/06/16 02:07:43;;;;;;;10.07;4.70;;;12.10;99.90;;;;;;6099718;23;20036;-82
2022/06/16 02:10:15;;;;;;;8.45;4.05;;;12.10;99.90;;;;;;6153636;23;20018;-87
2022/06/16 02:12:55;;;;;;;10.55;5.20;;;12.10;99.90;;;;;;6153954;23;20028;-81
2022/06/16 02:15:39;;;;;;;10.23;5.07;;;12.10;99.90;;;;;;6153816;23;20465;-81
2022/06/16 02:18:09;;;;;;;8.95;4.78;;;12.10;99.90;;;;;;6129220;23;20028;-82
2022/06/16 02:20:59;;;;;;;9.40;5.00;;;12.00;99.90;;;;;;6153421;23;20525;-82
2022/06/16 02:23:25;;;;;;;5.43;4.53;;;12.00;99.90;;;;;;6153729;23;20017;-82
2022/06/16 02:25:54;;;;;;;8.30;5.30;;;11.90;99.90;;;;;;6153798;23;20124;-82
2022/06/16 02:28:21;;;;;;;10.00;6.07;;;11.90;99.90;;;;;;6128828;23;20064;-81
2022/06/16 02:31:12;;;;;;;14.27;5.70;;;11.90;99.90;;;;;;6153784;23;20017;-82
2022/06/16 02:33:46;;;;;;;12.27;5.32;;;11.80;99.90;;;;;;6201686;22;20015;-82
2022/06/16 02:36:30;;;;;;;11.60;6.03;;;11.80;99.90;;;;;;6277195;22;20022;-82
2022/06/16 02:39:20;;;;;;;17.65;6.30;;;11.70;99.90;;;;;;6277232;22;20019;-81
2022/06/16 02:41:54;;;;;;;15.40;6.37;;;11.60;99.90;;;;;;6277069;22;20019;-82
2022/06/16 02:44:31;;;;;;;7.95;5.85;;;11.50;99.90;;;;;;6249781;22;20047;-81
2022/06/16 02:47:09;;;;;;;8.82;5.68;;;11.40;99.90;;;;;;6277121;22;20089;-81
2022/06/16 02:50:04;;;;;;;10.25;5.82;;;11.30;99.90;;;;;;6276769;22;20443;-81
2022/06/16 02:52:47;;;;;;;12.43;6.05;;;11.20;99.90;;;;;;6274103;22;20015;-81
2022/06/16 02:55:25;;;;;;;10.88;5.55;;;11.20;99.90;;;;;;6224106;22;20573;-82
2022/06/16 02:57:58;;;;;;;13.55;6.55;;;11.10;99.90;;;;;;6277015;22;20082;-82
2022/06/16 03:00:37;;;;;;;10.00;6.60;;;11.10;99.90;;;;;;6277033;22;20024;-81
2022/06/16 03:03:17;;;;;;;15.30;6.13;;;11.10;99.90;;;;;;6249880;22;20102;-81
2022/06/16 03:05:43;;;;;;;14.48;6.28;;;11.10;99.90;;;;;;6276742;22;20029;-81
2022/06/16 03:08:08;;;;;;;15.13;6.85;;;11.10;99.90;;;;;;6276929;22;20012;-81
2022/06/16 03:10:52;;;;;;;11.80;5.85;;;11.10;99.90;;;;;;6276589;22;20020;-81
2022/06/16 03:13:26;;;;;;;10.70;6.63;;;11.00;99.90;;;;;;6276036;22;20425;-81
2022/06/16 03:15:54;;;;;;;9.65;6.38;;;11.10;99.90;;;;;;6276350;22;20051;-81
2022/06/16 03:18:20;;;;;;;10.88;7.60;;;11.00;99.90;;;;;;6276680;22;20063;-81
2022/06/16 03:20:48;;;;;;;12.70;7.50;;;10.90;99.90;;;;;;6249725;22;20012;-81
2022/06/16 03:23:14;;;;;;;18.67;7.28;;;10.90;99.90;;;;;;6277082;22;20015;-81
2022/06/16 03:25:41;;;;;;;14.15;7.47;;;10.80;99.90;;;;;;6249698;22;20062;-82
2022/06/16 03:28:08;;;;;;;15.40;7.70;;;10.80;99.90;;;;;;6249598;22;20351;-81
2022/06/16 03:30:35;;;;;;;14.13;8.10;;;10.70;99.90;;;;;;6276719;22;20410;-81
2022/06/16 03:33:02;;;;;;;11.88;7.65;;;10.60;99.90;;;;;;6276202;22;20020;-82
2022/06/16 03:35:28;;;;;;;13.48;7.68;;;10.50;99.90;;;;;;6249514;22;20119;-81
2022/06/16 03:37:54;;;;;;;13.27;7.50;;;10.50;99.90;;;;;;6276824;22;20011;-81
2022/06/16 03:40:20;;;;;;;13.30;7.50;;;10.40;99.90;;;;;;6276639;22;20023;-82
2022/06/16 03:42:47;;;;;;;11.73;7.57;;;10.50;99.90;;;;;;6276550;22;20019;-81
2022/06/16 03:45:13;;;;;;;15.07;7.70;;;10.40;99.90;;;;;;6249506;22;20026;-81
2022/06/16 03:47:39;;;;;;;10.85;7.50;;;10.40;99.90;;;;;;6249101;22;20047;-81
2022/06/16 03:50:06;;;;;;;14.27;8.07;;;10.40;99.90;;;;;;6276557;22;20019;-81
2022/06/16 03:52:31;;;;;;;14.70;8.18;;;10.30;99.90;;;;;;6249315;22;20019;-81
2022/06/16 03:54:57;;;;;;;11.93;7.28;;;10.30;99.90;;;;;;6276468;22;20096;-81
2022/06/16 03:57:22;;;;;;;11.95;7.97;;;10.30;99.90;;;;;;6248524;22;20023;-81
2022/06/16 03:59:48;;;;;;;10.07;7.88;;;10.50;99.90;;;;;;6276782;22;20051;-81
2022/06/16 04:02:14;;;;;;;11.73;6.78;;;10.50;99.90;;;;;;6224188;22;20081;-81
2022/06/16 04:04:39;;;;;;;12.18;7.10;;;10.60;99.90;;;;;;6276522;22;20027;-81
2022/06/16 04:07:05;;;;;;;12.80;7.78;;;10.70;99.90;;;;;;6249322;22;20027;-81
2022/06/16 04:09:31;;;;;;;16.52;7.30;;;10.80;99.90;;;;;;6249270;22;20091;-81
2022/06/16 04:11:57;;;;;;;15.88;6.95;;;10.90;99.90;;;;;;6276511;22;20444;-82
2022/06/16 04:14:22;;;;;;;12.65;7.10;;;11.00;99.90;;;;;;6249436;22;20027;-81
2022/06/16 04:16:52;;;;;;;11.38;6.80;;;11.10;99.90;;;;;;6276296;22;20098;-81
2022/06/16 04:19:21;;;;;;;8.82;6.78;;;11.30;99.90;;;;;;6248500;22;20023;-81
2022/06/16 04:21:48;;;;;;;11.38;6.07;;;11.40;99.90;;;;;;6248765;22;20078;-81
2022/06/16 04:24:16;;;;;;;12.63;6.93;;;11.60;99.90;;;;;;6249214;22;20090;-86
2022/06/16 04:26:42;;;;;;;8.48;6.00;;;11.90;99.90;;;;;;6276080;22;20051;-82
2022/06/16 04:29:10;;;;;;;8.07;6.43;;;11.90;99.90;;;;;;6276379;22;20019;-82
2022/06/16 04:31:36;;;;;;;14.88;6.70;;;12.10;99.90;;;;;;6249277;22;20077;-81
2022/06/16 04:34:02;;;;;;;10.65;6.60;;;12.30;99.90;;;;;;6249027;22;20022;-81
2022/06/16 04:36:29;;;;;;;11.73;7.13;;;12.40;99.90;;;;;;6276132;22;20020;-81
2022/06/16 04:38:55;;;;;;;8.40;5.93;;;12.50;99.90;;;;;;6276061;22;20019;-82
2022/06/16 04:41:21;;;;;;;10.18;6.47;;;12.70;99.90;;;;;;6249029;22;20020;-82
2022/06/16 04:43:46;;;;;;;11.05;6.68;;;12.70;99.90;;;;;;6249227;22;20414;-81
2022/06/16 04:46:14;;;;;;;11.10;5.82;;;12.70;99.90;;;;;;6249139;22;20020;-82
2022/06/16 04:48:39;;;;;;;11.00;6.57;;;12.80;99.90;;;;;;6276213;22;20067;-81
2022/06/16 04:51:05;;;;;;;11.77;6.57;;;12.80;99.90;;;;;;6276098;22;20395;-82
2022/06/16 04:53:32;;;;;;;11.50;5.90;;;12.90;99.90;;;;;;6276042;22;20020;-81
2022/06/16 04:56:00;;;;;;;11.18;5.60;;;13.00;99.90;;;;;;6248897;22;20016;-82
2022/06/16 04:58:27;;;;;;;11.98;5.63;;;13.00;99.90;;;;;;6275573;22;20031;-81
2022/06/16 05:00:54;;;;;;;13.15;6.00;;;13.00;99.90;;;;;;6249018;22;20033;-81
2022/06/16 05:03:21;;;;;;;8.68;6.38;;;13.10;99.90;;;;;;6275982;22;20015;-82
2022/06/16 05:05:49;;;;;;;9.68;6.80;;;13.10;99.90;;;;;;6276392;22;20035;-81
2022/06/16 05:08:17;;;;;;;13.32;6.43;;;13.10;99.90;;;;;;6276101;22;20012;-83
2022/06/16 05:10:44;;;;;;;11.48;5.82;;;13.10;99.90;;;;;;6276042;22;20015;-82
2022/06/16 05:13:10;;;;;;;10.57;6.43;;;13.20;99.90;;;;;;6249207;22;20107;-81
2022/06/16 05:15:36;;;;;;;11.00;6.05;;;13.30;99.90;;;;;;6276022;22;20050;-82
2022/06/16 05:18:03;;;;;;;10.23;6.85;;;13.40;99.90;;;;;;6275944;22;20016;-82
2022/06/16 05:20:29;;;;;;;11.60;6.30;;;13.40;99.90;;;;;;6275943;22;20012;-81
2022/06/16 05:22:54;;;;;;;10.35;6.00;;;13.50;99.90;;;;;;6275971;22;20458;-81
2022/06/16 05:25:20;;;;;;;11.65;6.20;;;13.60;99.90;;;;;;6248909;22;20012;-81
2022/06/16 05:27:45;;;;;;;10.95;5.93;;;13.70;99.90;;;;;;6248431;22;20020;-84
2022/06/16 05:30:12;;;;;;;9.90;6.38;;;13.90;99.90;;;;;;6276368;22;20367;-81
2022/06/16 05:32:37;;;;;;;7.38;5.35;;;13.90;99.90;;;;;;6249042;22;20027;-81
2022/06/16 05:35:04;;;;;;;12.82;5.82;;;14.00;99.90;;;;;;6248141;22;20019;-82
2022/06/16 05:37:31;;;;;;;10.85;5.13;;;14.00;99.90;;;;;;6275780;22;20023;-81
2022/06/16 05:39:56;;;;;;;7.13;3.95;;;14.00;99.90;;;;;;6275820;22;20104;-82
2022/06/16 05:42:22;;;;;;;6.88;3.60;;;14.10;99.90;;;;;;6275677;22;20020;-82
2022/06/16 05:44:48;;;;;;;11.95;4.70;;;14.00;99.90;;;;;;6248813;22;20035;-81
2022/06/16 05:47:14;;;;;;;7.50;4.70;;;14.10;99.90;;;;;;6248501;22;20019;-84
2022/06/16 05:49:42;;;;;;;7.47;4.18;;;14.10;99.90;;;;;;6275630;22;20019;-81
2022/06/16 05:52:14;;;;;;;8.98;4.28;;;14.10;99.90;;;;;;6248856;22;20012;-81
2022/06/16 05:54:40;;;;;;;10.38;4.47;;;14.20;99.90;;;;;;6276122;22;20054;-81
2022/06/16 05:57:10;;;;;;;6.43;4.20;;;14.20;99.90;;;;;;6277317;22;20351;-82
2022/06/16 05:59:37;;;;;;;8.20;4.70;;;14.40;99.90;;;;;;6277739;22;20019;-82
2022/06/16 06:02:05;;;;;;;7.85;3.63;;;14.60;99.90;;;;;;6277612;22;20344;-82
2022/06/16 06:04:32;;;;;;;8.50;3.90;;;14.80;99.90;;;;;;6250626;22;20019;-81
2022/06/16 06:06:59;;;;;;;7.00;4.15;;;15.00;99.90;;;;;;6277588;22;20335;-82
2022/06/16 06:17:39;;;;;;;5.90;2.90;;;15.20;99.90;;;;;;6250681;22;20103;-83
2022/06/16 06:20:05;;;;;;;7.80;3.53;;;15.20;99.90;;;;;;6251087;22;20454;-82
2022/06/16 06:22:31;;;;;;;8.63;3.70;;;15.30;99.90;;;;;;6277885;22;20104;-82
2022/06/16 06:24:58;;;;;;;8.90;3.92;;;15.50;99.90;;;;;;6277888;22;20133;-82
2022/06/16 06:27:37;;;;;;;9.82;3.20;;;15.60;99.90;;;;;;6277290;22;20098;-83
2022/06/16 06:30:28;;;;;;;8.57;3.15;;;15.70;99.90;;;;;;6250379;22;20439;-82
2022/06/16 06:32:55;;;;;;;8.88;3.08;;;15.80;99.90;;;;;;6250347;22;20030;-82
2022/06/16 06:35:21;;;;;;;7.85;2.35;;;16.00;99.90;;;;;;6277373;22;20019;-83
2022/06/16 06:37:47;;;;;;;6.38;2.20;;;16.00;99.90;;;;;;6277291;22;20019;-82
2022/06/16 06:40:20;;;;;;;9.32;2.85;;;16.00;99.90;;;;;;6225097;22;20047;-83
2022/06/16 06:42:45;;;;;;;7.88;2.00;;;16.10;99.90;;;;;;6250001;22;20374;-82
2022/06/16 06:45:11;;;;;;;4.47;1.25;;;16.40;99.90;;;;;;6277187;22;20024;-82
2022/06/16 06:47:37;;;;;;;6.50;1.60;;;17.00;99.90;;;;;;6250898;22;20020;-82
2022/06/16 06:50:03;;;;;;;5.57;1.15;;;17.90;99.90;;;;;;6277527;22;20031;-82
2022/06/16 06:52:29;;;;;;;4.85;1.08;;;18.90;99.90;;;;;;6278213;22;20026;-82
2022/06/16 06:54:55;;;;;;;3.83;1.08;;;19.70;99.90;;;;;;6250723;22;20095;-83
2022/06/16 06:57:25;;;;;;;3.50;1.20;;;20.50;99.90;;;;;;6249931;22;20018;-83
2022/06/16 06:59:51;;;;;;;4.15;1.20;;;21.10;99.60;;;;;;6249572;22;20463;-85
2022/06/16 07:02:18;;;;;;;4.35;0.90;;;21.50;93.90;;;;;;6277452;22;20103;-87
2022/06/16 07:04:44;;;;;;;5.97;1.38;;;22.20;90.70;;;;;;6277150;22;20020;-83
2022/06/16 07:07:13;;;;;;;6.55;1.17;;;22.70;82.80;;;;;;6277261;22;20088;-82
2022/06/16 07:09:38;;;;;;;3.20;0.80;;;23.10;80.30;;;;;;6224598;22;20053;-83
2022/06/16 07:12:13;;;;;;;2.90;0.90;;;23.50;73.40;;;;;;6277377;22;20051;-82
2022/06/16 07:14:39;;;;;;;3.00;0.88;;;23.70;69.90;;;;;;6251863;22;20051;-82
2022/06/16 07:17:05;;;;;;;2.67;0.93;;;24.00;66.90;;;;;;6276966;22;20395;-81
2022/06/16 07:19:33;;;;;;;4.05;1.02;;;24.20;65.90;;;;;;6276908;22;20087;-80
2022/06/16 07:21:59;;;;;;;5.45;0.80;;;24.50;65.20;;;;;;6276696;22;20055;-80
2022/06/16 07:24:24;;;;;;;3.28;0.95;;;24.70;64.00;;;;;;6249852;22;20020;-81
2022/06/16 07:26:50;;;;;;;3.08;1.13;;;25.00;62.90;;;;;;6277071;22;20019;-82
2022/06/16 07:29:16;;;;;;;3.38;0.90;;;25.30;61.10;;;;;;6276672;22;20394;-81
2022/06/16 07:31:41;;;;;;;4.00;1.00;;;25.50;59.80;;;;;;6250116;22;20055;-80
2022/06/16 07:34:07;;;;;;;4.68;1.00;;;25.70;57.50;;;;;;6276902;22;20055;-81
2022/06/16 07:36:33;;;;;;;3.58;0.88;;;25.70;56.40;;;;;;6249907;22;20069;-81
2022/06/16 07:38:58;;;;;;;4.03;1.00;;;25.90;55.60;;;;;;6249746;22;20020;-81
2022/06/16 07:41:34;;;;;;;1.77;0.70;;;26.20;53.60;;;;;;6249546;22;20065;-81
2022/06/16 07:44:15;;;;;;;2.28;0.90;;;26.40;54.30;;;;;;6276665;22;20016;-81
2022/06/16 07:46:42;;;;;;;3.08;1.00;;;26.90;52.50;;;;;;6276798;22;20023;-81
2022/06/16 07:49:11;;;;;;;1.05;0.63;;;27.00;52.20;;;;;;6249719;22;20019;-81
2022/06/16 07:51:37;;;;;;;3.95;0.98;;;27.30;50.60;;;;;;6276939;22;20088;-81
2022/06/16 07:54:03;;;;;;;2.55;0.93;;;27.40;49.50;;;;;;6248534;22;20403;-81
2022/06/16 07:56:29;;;;;;;3.80;1.23;;;27.80;48.70;;;;;;6275930;22;20019;-81
2022/06/16 07:58:55;;;;;;;1.85;0.80;;;27.70;46.70;;;;;;6276159;22;20020;-82
2022/06/16 08:01:20;;;;;;;2.92;0.90;;;27.80;46.50;;;;;;6275919;22;20077;-82
2022/06/16 08:03:46;;;;;;;1.85;0.85;;;28.10;46.30;;;;;;6224599;22;20022;-82
2022/06/16 08:06:18;;;;;;;2.03;1.00;;;28.20;45.60;;;;;;6276650;22;20030;-82
2022/06/16 08:08:44;;;;;;;2.67;0.98;;;28.20;45.30;;;;;;6248887;22;20439;-86
2022/06/16 08:12:03;;;;;;;3.40;1.10;;;28.40;46.60;;;;;;6276849;22;20030;-81
2022/06/16 08:13:59;;;;;;;2.83;1.20;;;28.60;46.00;;;;;;6276389;22;20019;-81
2022/06/16 08:16:26;;;;;;;3.45;1.20;;;28.70;45.60;;;;;;6276898;22;20019;-81
2022/06/16 08:18:51;;;;;;;2.50;1.20;;;28.70;45.00;;;;;;6276476;22;20371;-81
2022/06/16 08:21:17;;;;;;;3.10;1.20;;;28.90;44.60;;;;;;6276373;22;20050;-81
2022/06/16 08:23:43;;;;;;;4.93;1.40;;;29.20;44.60;;;;;;6276424;22;20149;-81
2022/06/16 08:26:10;;;;;;;3.78;1.10;;;29.40;43.50;;;;;;6276233;22;20051;-81
2022/06/16 08:28:38;;;;;;;3.47;1.20;;;29.60;43.20;;;;;;6276306;22;20031;-81
2022/06/16 08:31:05;;;;;;;5.35;1.42;;;29.90;42.40;;;;;;6276480;22;20018;-81
2022/06/16 08:33:31;;;;;;;2.28;1.30;;;30.20;42.70;;;;;;6276526;22;20015;-81
2022/06/16 08:35:57;;;;;;;2.30;1.25;;;30.20;41.90;;;;;;6249343;22;20458;-82
2022/06/16 08:38:22;;;;;;;6.00;1.52;;;30.10;42.20;;;;;;6276587;22;20016;-81
2022/06/16 08:41:11;;;;;;;3.20;1.40;;;30.00;42.70;;;;;;6276392;22;20098;-82
2022/06/16 08:43:42;;;;;;;4.63;1.48;;;30.10;42.70;;;;;;6224135;22;20016;-82
2022/06/16 08:46:08;;;;;;;7.88;1.95;;;30.40;43.10;;;;;;6276723;22;20016;-82
2022/06/16 08:48:51;;;;;;;2.92;1.27;;;30.60;42.60;;;;;;6276214;22;20335;-81
2022/06/16 08:51:29;;;;;;;3.13;1.50;;;30.70;42.50;;;;;;6276577;22;20049;-82
2022/06/16 08:54:08;;;;;;;3.88;1.50;;;30.80;42.70;;;;;;6249290;22;20073;-81
2022/06/16 08:56:39;;;;;;;6.38;1.42;;;31.00;42.00;;;;;;6276455;22;20055;-82
2022/06/16 08:59:04;;;;;;;4.70;1.45;;;31.20;41.20;;;;;;6275840;22;20027;-82
2022/06/16 09:01:44;;;;;;;3.72;1.30;;;31.50;39.90;;;;;;6249063;22;20022;-82
2022/06/16 09:04:42;;;;;;;4.20;1.60;;;31.10;39.60;;;;;;6276105;22;20024;-82
2022/06/16 09:07:21;;;;;;;2.72;1.40;;;30.60;40.30;;;;;;6249084;22;20298;-82
2022/06/16 09:10:14;;;;;;;3.00;1.40;;;30.20;41.60;;;;;;6276196;22;20015;-82
2022/06/16 09:13:01;;;;;;;1.90;1.20;;;30.40;41.90;;;;;;6276053;22;20091;-81
2022/06/16 09:15:34;;;;;;;5.20;1.67;;;30.60;42.70;;;;;;6249141;22;20030;-82
2022/06/16 09:18:27;;;;;;;5.22;1.60;;;30.80;41.50;;;;;;6276129;22;20091;-82
2022/06/16 09:21:14;;;;;;;4.85;1.40;;;30.70;40.90;;;;;;6276022;22;20028;-80
2022/06/16 09:23:48;;;;;;;4.05;1.60;;;30.90;41.20;;;;;;6223790;22;20016;-82
2022/06/16 09:26:39;;;;;;;3.40;1.52;;;31.10;41.80;;;;;;6276354;22;20020;-82
2022/06/16 09:29:19;;;;;;;5.50;1.55;;;31.60;39.00;;;;;;6248721;22;20011;-82
2022/06/16 09:31:47;;;;;;;4.33;1.40;;;31.40;40.50;;;;;;6250269;22;20051;-82
2022/06/16 09:34:27;;;;;;;2.88;1.45;;;31.40;41.60;;;;;;6277989;22;20030;-82
2022/06/16 09:36:58;;;;;;;3.95;1.55;;;31.40;41.40;;;;;;6251080;22;20058;-82
2022/06/16 09:39:36;;;;;;;2.83;1.60;;;31.60;40.70;;;;;;6250921;22;20016;-82
2022/06/16 09:42:33;;;;;;;4.20;1.50;;;31.80;40.60;;;;;;6277822;22;20316;-82
2022/06/16 09:45:39;;;;;;;4.78;1.70;;;32.00;41.40;;;;;;6278096;22;20090;-82
2022/06/16 09:48:34;;;;;;;3.35;1.73;;;32.30;38.20;;;;;;6277460;22;20095;-84
2022/06/16 09:51:32;;;;;;;2.72;1.40;;;32.00;39.50;;;;;;6278632;22;20332;-83
2022/06/16 09:54:12;;;;;;;3.00;1.70;;;32.10;40.00;;;;;;6278365;22;20027;-82
2022/06/16 09:56:50;;;;;;;4.63;1.65;;;32.30;40.70;;;;;;6277809;22;20024;-81
2022/06/16 09:59:33;;;;;;;4.43;2.10;;;32.70;40.40;;;;;;6250306;22;20023;-82
2022/06/16 10:02:10;;;;;;;3.72;1.65;;;33.10;38.40;;;;;;6277642;22;20074;-82
2022/06/16 10:04:36;;;;;;;3.47;1.67;;;33.40;39.30;;;;;;6279245;22;20374;-81
2022/06/16 10:07:32;;;;;;;4.43;1.73;;;33.50;39.60;;;;;;6255278;22;20051;-82
2022/06/16 10:10:14;;;;;;;4.18;2.20;;;33.70;38.00;;;;;;6252280;22;20027;-81
2022/06/16 10:12:39;;;;;;;5.15;2.20;;;33.80;36.80;;;;;;6252354;22;20080;-82
2022/06/16 10:15:05;;;;;;;3.08;1.70;;;33.80;37.10;;;;;;6251051;22;20090;-81
2022/06/16 10:17:33;;;;;;;4.80;2.05;;;33.60;38.20;;;;;;6251126;22;20020;-82
2022/06/16 10:19:59;;;;;;;5.65;1.88;;;33.60;38.30;;;;;;6227473;22;20020;-82
2022/06/16 10:22:28;;;;;;;3.85;1.77;;;33.40;38.00;;;;;;6283162;22;20015;-83
2022/06/16 10:25:25;;;;;;;4.55;1.88;;;33.10;39.00;;;;;;6282225;22;20038;-82
2022/06/16 10:28:29;;;;;;;4.00;1.98;;;33.30;40.40;;;;;;6278104;22;20012;-81
2022/06/16 10:30:58;;;;;;;7.40;2.25;;;33.70;38.30;;;;;;6250967;22;20511;-82
2022/06/16 10:33:30;;;;;;;4.60;1.48;;;33.90;38.00;;;;;;6277327;22;20542;-82
2022/06/16 10:36:07;;;;;;;5.00;2.20;;;34.10;37.90;;;;;;6277353;22;20026;-82
2022/06/16 10:38:42;;;;;;;4.18;2.10;;;34.10;37.00;;;;;;6277543;22;20018;-82
2022/06/16 10:41:30;;;;;;;3.40;2.10;;;34.00;36.60;;;;;;6277168;22;20343;-81
2022/06/16 10:43:59;;;;;;;3.65;1.85;;;33.70;36.70;;;;;;6276673;22;20117;-82
2022/06/16 10:46:34;;;;;;;4.88;2.13;;;33.40;38.50;;;;;;6277141;22;20019;-81
2022/06/16 10:49:06;;;;;;;6.68;2.42;;;33.50;38.10;;;;;;6250006;22;20023;-83
2022/06/16 10:51:36;;;;;;;4.50;2.40;;;33.30;38.40;;;;;;6277395;22;20019;-82
2022/06/16 10:54:19;;;;;;;4.10;2.28;;;33.00;38.50;;;;;;6250192;22;20016;-82
2022/06/16 10:56:45;;;;;;;4.68;1.73;;;32.80;39.20;;;;;;6277248;22;20335;-82
2022/06/16 10:59:23;;;;;;;3.35;1.60;;;32.70;38.00;;;;;;6277319;22;20023;-82
2022/06/16 11:01:55;;;;;;;6.82;2.25;;;31.60;39.70;;;;;;6277493;22;20095;-81
2022/06/16 11:04:24;;;;;;;6.15;2.50;;;31.40;40.10;;;;;;6250225;22;20027;-82
2022/06/16 11:06:56;;;;;;;6.57;2.25;;;31.50;40.00;;;;;;6250064;22;20016;-82
2022/06/16 11:09:28;;;;;;;3.40;2.35;;;31.60;39.40;;;;;;6249915;22;20382;-82
2022/06/16 11:12:01;;;;;;;4.40;1.90;;;31.80;39.70;;;;;;6277221;22;20086;-83
2022/06/16 11:14:46;;;;;;;3.60;1.77;;;32.20;41.10;;;;;;6250338;22;20020;-81
2022/06/16 11:17:24;;;;;;;6.05;2.10;;;32.90;40.50;;;;;;6276096;22;20058;-82
2022/06/16 11:20:01;;;;;;;3.80;1.90;;;33.60;39.70;;;;;;6277091;22;20012;-81
2022/06/16 11:22:35;;;;;;;6.90;2.22;;;34.10;37.60;;;;;;6276812;22;20024;-81
2022/06/16 11:25:22;;;;;;;8.63;2.28;;;33.80;37.20;;;;;;6276894;22;20023;-81
2022/06/16 11:27:56;;;;;;;4.90;1.85;;;33.40;38.60;;;;;;6249458;22;20451;-82
2022/06/16 11:30:43;;;;;;;6.72;1.95;;;32.30;39.80;;;;;;6276813;22;20090;-82
2022/06/16 11:34:06;;;;;;;3.17;1.92;;;31.40;39.80;;;;;;6276518;22;20016;-81
2022/06/16 11:36:50;;;;;;;4.65;1.80;;;31.20;41.00;;;;;;6249712;22;20015;-81
2022/06/16 11:39:41;;;;;;;3.15;1.80;;;30.80;42.00;;;;;;6275346;22;20073;-82
2022/06/16 11:42:22;;;;;;;6.28;1.90;;;29.80;43.50;;;;;;6276757;22;20393;-81
2022/06/16 11:45:10;;;;;;;2.90;2.00;;;30.40;43.50;;;;;;6249061;22;20027;-81
2022/06/16 11:48:13;;;;;;;4.13;2.10;;;31.50;42.60;;;;;;6276364;22;20455;-82
2022/06/16 11:51:06;;;;;;;5.20;1.85;;;31.80;40.00;;;;;;6249368;22;20450;-81
2022/06/16 11:53:45;;;;;;;3.38;2.08;;;31.00;41.90;;;;;;6276034;22;20440;-81
2022/06/16 11:56:21;;;;;;;3.60;1.98;;;31.40;41.30;;;;;;6276668;22;20073;-81
2022/06/16 11:58:57;;;;;;;5.03;2.00;;;32.20;39.20;;;;;;6277097;22;20008;-81
2022/06/16 12:01:28;;;;;;;3.45;1.90;;;32.90;38.50;;;;;;6276814;22;20023;-81
2022/06/16 12:04:15;;;;;;;3.05;2.13;;;33.30;38.20;;;;;;6250019;22;20027;-83
2022/06/16 12:07:22;;;;;;;4.00;2.10;;;33.50;37.30;;;;;;6276744;22;20070;-82
2022/06/16 12:09:58;;;;;;;3.67;2.13;;;33.40;38.40;;;;;;6276673;22;20051;-82
2022/06/16 12:12:56;;;;;;;4.18;1.90;;;33.70;37.50;;;;;;6224485;22;20011;-82
2022/06/16 12:15:24;;;;;;;6.85;2.13;;;34.40;36.30;;;;;;6276607;22;20023;-81
2022/06/16 12:18:30;;;;;;;4.88;2.17;;;34.20;36.50;;;;;;6249525;22;20335;-82
2022/06/16 12:21:20;;;;;;;3.83;2.20;;;34.20;36.70;;;;;;6153047;23;20081;-82
2022/06/16 12:24:14;;;;;;;4.55;2.20;;;34.30;36.40;;;;;;6153250;23;20017;-82
2022/06/16 12:26:40;;;;;;;4.30;2.00;;;34.60;36.90;;;;;;6153192;23;20022;-82
2022/06/16 12:29:51;;;;;;;6.32;2.35;;;34.00;37.30;;;;;;6153071;23;20082;-82
2022/06/16 12:32:43;;;;;;;4.20;1.80;;;32.90;38.40;;;;;;6152939;23;20029;-82
2022/06/16 12:35:33;;;;;;;4.03;2.20;;;32.90;39.30;;;;;;6128496;23;20040;-82
2022/06/16 12:38:22;;;;;;;3.47;2.00;;;33.40;37.70;;;;;;6128030;23;20017;-82
2022/06/16 12:40:55;;;;;;;5.22;2.08;;;34.00;38.50;;;;;;6093805;23;20022;-82
2022/06/16 12:43:36;;;;;;;3.80;1.88;;;34.60;37.20;;;;;;6093959;23;20093;-82
2022/06/16 12:46:09;;;;;;;7.28;2.60;;;34.70;36.40;;;;;;6093990;23;20059;-82
2022/06/16 12:48:48;;;;;;;5.13;2.53;;;33.50;37.40;;;;;;6093741;23;20415;-82
2022/06/16 12:51:18;;;;;;;5.60;1.80;;;32.70;37.40;;;;;;6094464;23;20023;-83
2022/06/16 12:53:54;;;;;;;5.70;2.15;;;32.60;39.30;;;;;;6094306;23;20257;-81
2022/06/16 12:56:32;;;;;;;3.97;1.90;;;33.40;38.90;;;;;;6108232;23;20021;-82
2022/06/16 12:59:03;;;;;;;5.88;2.10;;;33.90;38.80;;;;;;6156626;23;20021;-82
2022/06/16 13:01:29;;;;;;;4.10;2.70;;;34.10;37.30;;;;;;6182183;23;20017;-83
2022/06/16 13:04:06;;;;;;;7.25;2.30;;;34.00;37.50;;;;;;6182219;23;20059;-82
2022/06/16 13:06:35;;;;;;;4.10;2.42;;;34.00;36.90;;;;;;6159394;23;20024;-81
2022/06/16 13:09:06;;;;;;;3.28;1.95;;;33.50;35.90;;;;;;6184387;23;20013;-81
2022/06/16 13:11:37;;;;;;;4.53;2.15;;;32.70;37.80;;;;;;6159195;23;20058;-82
2022/06/16 13:14:10;;;;;;;5.28;1.98;;;31.80;39.00;;;;;;6184168;23;20071;-83
2022/06/16 13:16:40;;;;;;;5.50;2.30;;;30.50;40.60;;;;;;6159402;23;20017;-82
2022/06/16 13:19:08;;;;;;;5.40;2.05;;;29.40;42.20;;;;;;6278102;22;20016;-82
2022/06/16 13:21:42;;;;;;;4.43;2.00;;;29.30;41.70;;;;;;6277583;22;20474;-81
2022/06/16 13:24:22;;;;;;;8.02;2.15;;;28.90;42.30;;;;;;6251040;22;20015;-86
2022/06/16 13:27:07;;;;;;;2.75;2.00;;;28.30;43.50;;;;;;6277843;22;20051;-81
2022/06/16 13:29:51;;;;;;;5.60;2.28;;;28.30;44.60;;;;;;6277814;22;20016;-82
2022/06/16 13:32:28;;;;;;;5.35;1.95;;;29.10;43.10;;;;;;6250944;22;20141;-81
2022/06/16 13:34:57;;;;;;;4.72;2.15;;;29.50;44.30;;;;;;6224863;22;20023;-81